Aeroporto :
LOGIN :

Iscrizione | Disclaimer

   EN    FR    IT 

 










Sommario :    VFR   VFR Marginale   IFR   IFR Intensivo   IFR Molto Intensivo
Visibilità : 
Base nubi : 
>= 8 km
>= 3000ft
5 / 8 km
1000 / 3000 ft
1500m / 5 km
500 / 1000 ft
800 / 1500m
200 / 500 ft
< 800m
< 200 ft
Simboli :   Temporali  Nebbia  Neve Forte  Precipitazioni Forti  Vento > 20 kt
SIGMETs :   Varie  Temporali  Ghiacco  Turbolenza  Onda orograficha  Ceneri Vulcaniche







- Altitudine del aeroporto : 28 ft
- Codice IATA : SOZ
- Carte del aeroporto


LFKS - Solenzara

ULTIMO METAR :
  • 250030Z AUTO 28005KT 250V310 9999 SCT035 SCT100 17/14 Q1018

METARs OBSOLETI :
  • 250000Z AUTO 27004KT CAVOK 17/14 Q1018
  • 242330Z AUTO 28005KT CAVOK 18/14 Q1018
  • 242300Z AUTO 27004KT 240V310 CAVOK 18/14 Q1018
  • 242230Z AUTO 28005KT 250V310 CAVOK 18/14 Q1018
  • 242200Z AUTO 28005KT 250V310 CAVOK 18/15 Q1018

TAF TAF LFKS
Valido dal 24 a 15 ore il 25 a 14 ore UTC


241330Z 2415/2514 04012KT 9999 FEW025 FEW040TCU BKN090
TEMPO 2415/2418 -SHRA SCT040TCU
Nessun NOTAM noto per questo aeroporto.



MetMap, La meteo Aeronautica in un colpo d'occhio ! - Copyright ORBIFLY Dicembre 2007 - Disclaimer

ORBIFLY MET'MAP TEAM :

Programmazione e sviluppo : Alexandra Zaïnal
Concezione e sviluppo : Baudouin d'Aumeries
Co-Programmazione e sviluppo : Marc-Olivier Méhu
Supporto tecnico e logistico : Manuel Goepfert
Aiuto per la traduzione : Arnaldo La Scala

Contatto : metmap@orbifly.com




FONTI E CREDITI :

   NOAA